Terminal Aerodrome Forecast
Issued by NWS

Home | Current Version | Previous Version | Text Only | Print | Product List | Glossary On
Versions: 1 2 3 4 5 6 7 8 9 10 11 12 13 14 15 16
292
FTUS44 KLIX 301728
TAFMCB
TAF
KMCB 301728Z 3018/0118 11004KT P6SM FEW022 BKN029 OVC050
      TEMPO 3018/3022 VRB25G40KT 1SM TSRA OVC010CB
     FM302200 17010KT P6SM OVC025
     FM010500 17006KT P6SM OVC008=

USA.gov is the U.S. government's official web portal to all federal, state and local government web resources and services.